sensor_id;sensor_type;location;lat;lon;timestamp;temperature;humidity
20481;DHT22;10399;50.754;3.366;2022-12-29T00:00:55;12.40;99.90
20481;DHT22;10399;50.754;3.366;2022-12-29T00:03:22;12.60;99.90
20481;DHT22;10399;50.754;3.366;2022-12-29T00:05:54;12.60;99.90
20481;DHT22;10399;50.754;3.366;2022-12-29T00:08:22;12.50;99.90
20481;DHT22;10399;50.754;3.366;2022-12-29T00:13:38;12.60;99.90
20481;DHT22;10399;50.754;3.366;2022-12-29T00:16:24;12.60;99.90
20481;DHT22;10399;50.754;3.366;2022-12-29T00:18:51;12.60;99.90
20481;DHT22;10399;50.754;3.366;2022-12-29T00:21:20;12.60;99.90
20481;DHT22;10399;50.754;3.366;2022-12-29T00:24:08;12.60;99.90
20481;DHT22;10399;50.754;3.366;2022-12-29T00:26:56;12.60;99.90
20481;DHT22;10399;50.754;3.366;2022-12-29T00:29:43;12.60;99.90
20481;DHT22;10399;50.754;3.366;2022-12-29T00:32:29;12.70;99.90
20481;DHT22;10399;50.754;3.366;2022-12-29T00:37:52;12.60;99.90
20481;DHT22;10399;50.754;3.366;2022-12-29T00:40:37;12.60;99.90
20481;DHT22;10399;50.754;3.366;2022-12-29T00:43:23;12.70;99.90
20481;DHT22;10399;50.754;3.366;2022-12-29T00:46:08;12.70;99.90
20481;DHT22;10399;50.754;3.366;2022-12-29T00:48:45;12.60;99.90
20481;DHT22;10399;50.754;3.366;2022-12-29T00:51:31;12.70;99.90
20481;DHT22;10399;50.754;3.366;2022-12-29T00:53:58;12.60;99.90
20481;DHT22;10399;50.754;3.366;2022-12-29T00:56:24;12.70;99.90
20481;DHT22;10399;50.754;3.366;2022-12-29T00:58:51;12.70;99.90
20481;DHT22;10399;50.754;3.366;2022-12-29T01:01:18;12.80;99.90
20481;DHT22;10399;50.754;3.366;2022-12-29T01:03:45;12.70;99.90
20481;DHT22;10399;50.754;3.366;2022-12-29T01:06:12;12.80;99.90
20481;DHT22;10399;50.754;3.366;2022-12-29T01:08:39;12.80;99.90
20481;DHT22;10399;50.754;3.366;2022-12-29T01:11:11;12.70;99.90
20481;DHT22;10399;50.754;3.366;2022-12-29T01:13:38;12.60;99.90
20481;DHT22;10399;50.754;3.366;2022-12-29T01:16:07;12.60;99.90
20481;DHT22;10399;50.754;3.366;2022-12-29T01:18:34;12.60;99.90
20481;DHT22;10399;50.754;3.366;2022-12-29T01:21:04;12.50;99.90
20481;DHT22;10399;50.754;3.366;2022-12-29T01:23:31;12.50;99.90
20481;DHT22;10399;50.754;3.366;2022-12-29T01:26:08;12.60;99.90
20481;DHT22;10399;50.754;3.366;2022-12-29T01:28:36;12.50;99.90
20481;DHT22;10399;50.754;3.366;2022-12-29T01:31:06;12.50;99.90
20481;DHT22;10399;50.754;3.366;2022-12-29T01:33:33;12.50;99.90
20481;DHT22;10399;50.754;3.366;2022-12-29T01:36:01;12.40;99.90
20481;DHT22;10399;50.754;3.366;2022-12-29T01:38:28;12.40;99.90
20481;DHT22;10399;50.754;3.366;2022-12-29T01:40:56;12.40;99.90
20481;DHT22;10399;50.754;3.366;2022-12-29T01:46:32;12.40;99.90
20481;DHT22;10399;50.754;3.366;2022-12-29T01:49:13;12.40;99.90
20481;DHT22;10399;50.754;3.366;2022-12-29T01:52:16;12.40;99.90
20481;DHT22;10399;50.754;3.366;2022-12-29T01:54:47;12.40;99.90
20481;DHT22;10399;50.754;3.366;2022-12-29T01:57:27;12.40;99.90
20481;DHT22;10399;50.754;3.366;2022-12-29T02:00:00;12.50;99.90
20481;DHT22;10399;50.754;3.366;2022-12-29T02:02:28;12.50;99.90
20481;DHT22;10399;50.754;3.366;2022-12-29T02:05:05;12.60;99.90
20481;DHT22;10399;50.754;3.366;2022-12-29T02:07:34;12.50;99.90
20481;DHT22;10399;50.754;3.366;2022-12-29T02:10:02;12.60;99.90
20481;DHT22;10399;50.754;3.366;2022-12-29T02:12:29;12.60;99.90
20481;DHT22;10399;50.754;3.366;2022-12-29T02:15:00;12.60;99.90
20481;DHT22;10399;50.754;3.366;2022-12-29T02:25:56;12.20;99.90
20481;DHT22;10399;50.754;3.366;2022-12-29T02:28:36;12.20;99.90
20481;DHT22;10399;50.754;3.366;2022-12-29T02:36:51;12.20;99.90
20481;DHT22;10399;50.754;3.366;2022-12-29T02:42:13;12.10;99.90
20481;DHT22;10399;50.754;3.366;2022-12-29T02:45:03;12.10;99.90
20481;DHT22;10399;50.754;3.366;2022-12-29T02:47:47;12.10;99.90
20481;DHT22;10399;50.754;3.366;2022-12-29T02:50:23;12.10;99.90
20481;DHT22;10399;50.754;3.366;2022-12-29T02:52:59;12.10;99.90
20481;DHT22;10399;50.754;3.366;2022-12-29T02:55:27;12.10;99.90
20481;DHT22;10399;50.754;3.366;2022-12-29T02:58:29;12.10;99.90
20481;DHT22;10399;50.754;3.366;2022-12-29T03:06:52;12.10;99.90
20481;DHT22;10399;50.754;3.366;2022-12-29T03:15:27;12.10;99.90
20481;DHT22;10399;50.754;3.366;2022-12-29T03:18:20;12.20;99.90
20481;DHT22;10399;50.754;3.366;2022-12-29T03:21:00;12.10;99.90
20481;DHT22;10399;50.754;3.366;2022-12-29T03:23:30;12.10;99.90
20481;DHT22;10399;50.754;3.366;2022-12-29T03:26:02;12.10;99.90
20481;DHT22;10399;50.754;3.366;2022-12-29T03:28:38;12.00;99.90
20481;DHT22;10399;50.754;3.366;2022-12-29T03:31:07;12.10;99.90
20481;DHT22;10399;50.754;3.366;2022-12-29T03:33:35;12.00;99.90
20481;DHT22;10399;50.754;3.366;2022-12-29T03:36:07;11.90;99.90
20481;DHT22;10399;50.754;3.366;2022-12-29T03:38:41;11.90;99.90
20481;DHT22;10399;50.754;3.366;2022-12-29T03:41:15;11.90;99.90
20481;DHT22;10399;50.754;3.366;2022-12-29T03:43:44;11.90;99.90
20481;DHT22;10399;50.754;3.366;2022-12-29T03:46:10;11.80;99.90
20481;DHT22;10399;50.754;3.366;2022-12-29T03:48:37;11.80;99.90
20481;DHT22;10399;50.754;3.366;2022-12-29T03:51:04;11.70;99.90
20481;DHT22;10399;50.754;3.366;2022-12-29T03:53:32;11.70;99.90
20481;DHT22;10399;50.754;3.366;2022-12-29T03:55:58;11.80;99.90
20481;DHT22;10399;50.754;3.366;2022-12-29T03:58:25;11.80;99.90
20481;DHT22;10399;50.754;3.366;2022-12-29T04:00:52;11.90;99.90
20481;DHT22;10399;50.754;3.366;2022-12-29T04:03:19;11.90;99.90
20481;DHT22;10399;50.754;3.366;2022-12-29T04:05:46;11.80;99.90
20481;DHT22;10399;50.754;3.366;2022-12-29T04:08:13;11.90;99.90
20481;DHT22;10399;50.754;3.366;2022-12-29T04:10:40;12.00;99.90
20481;DHT22;10399;50.754;3.366;2022-12-29T04:13:07;11.90;99.90
20481;DHT22;10399;50.754;3.366;2022-12-29T04:15:34;11.80;99.90
20481;DHT22;10399;50.754;3.366;2022-12-29T04:18:01;11.80;99.90
20481;DHT22;10399;50.754;3.366;2022-12-29T04:20:28;11.90;99.90
20481;DHT22;10399;50.754;3.366;2022-12-29T04:23:13;11.90;99.90
20481;DHT22;10399;50.754;3.366;2022-12-29T04:25:40;11.80;99.90
20481;DHT22;10399;50.754;3.366;2022-12-29T04:28:07;11.70;99.90
20481;DHT22;10399;50.754;3.366;2022-12-29T04:30:34;11.70;99.90
20481;DHT22;10399;50.754;3.366;2022-12-29T04:33:01;11.60;99.90
20481;DHT22;10399;50.754;3.366;2022-12-29T04:35:28;11.70;99.90
20481;DHT22;10399;50.754;3.366;2022-12-29T04:37:55;11.70;99.90
20481;DHT22;10399;50.754;3.366;2022-12-29T04:40:22;11.60;99.90
20481;DHT22;10399;50.754;3.366;2022-12-29T04:42:50;11.70;99.90
20481;DHT22;10399;50.754;3.366;2022-12-29T04:45:17;11.70;99.90
20481;DHT22;10399;50.754;3.366;2022-12-29T04:47:44;11.80;99.90
20481;DHT22;10399;50.754;3.366;2022-12-29T04:50:11;12.00;99.90
20481;DHT22;10399;50.754;3.366;2022-12-29T04:52:38;11.90;99.90
20481;DHT22;10399;50.754;3.366;2022-12-29T04:55:06;11.90;99.90
20481;DHT22;10399;50.754;3.366;2022-12-29T04:57:33;11.80;99.90
20481;DHT22;10399;50.754;3.366;2022-12-29T05:00:00;11.80;99.90
20481;DHT22;10399;50.754;3.366;2022-12-29T05:02:26;11.90;99.90
20481;DHT22;10399;50.754;3.366;2022-12-29T05:04:54;11.80;99.90
20481;DHT22;10399;50.754;3.366;2022-12-29T05:07:20;11.80;99.90
20481;DHT22;10399;50.754;3.366;2022-12-29T05:09:47;11.90;99.90
20481;DHT22;10399;50.754;3.366;2022-12-29T05:12:14;11.90;99.90
20481;DHT22;10399;50.754;3.366;2022-12-29T05:14:43;11.80;99.90
20481;DHT22;10399;50.754;3.366;2022-12-29T05:17:10;11.90;99.90
20481;DHT22;10399;50.754;3.366;2022-12-29T05:19:37;11.80;99.90
20481;DHT22;10399;50.754;3.366;2022-12-29T05:22:04;11.80;99.90
20481;DHT22;10399;50.754;3.366;2022-12-29T05:24:33;11.70;99.90
20481;DHT22;10399;50.754;3.366;2022-12-29T05:26:59;11.70;99.90
20481;DHT22;10399;50.754;3.366;2022-12-29T05:29:26;11.70;99.90
20481;DHT22;10399;50.754;3.366;2022-12-29T05:31:53;11.60;99.90
20481;DHT22;10399;50.754;3.366;2022-12-29T05:34:20;11.70;99.90
20481;DHT22;10399;50.754;3.366;2022-12-29T05:36:47;11.70;99.90
20481;DHT22;10399;50.754;3.366;2022-12-29T05:39:14;11.80;99.90
20481;DHT22;10399;50.754;3.366;2022-12-29T05:41:41;11.80;99.90
20481;DHT22;10399;50.754;3.366;2022-12-29T05:44:10;11.70;99.90
20481;DHT22;10399;50.754;3.366;2022-12-29T05:46:37;11.70;99.90
20481;DHT22;10399;50.754;3.366;2022-12-29T05:49:05;11.70;99.90
20481;DHT22;10399;50.754;3.366;2022-12-29T05:51:33;11.80;99.90
20481;DHT22;10399;50.754;3.366;2022-12-29T05:54:00;11.80;99.90
20481;DHT22;10399;50.754;3.366;2022-12-29T05:56:26;11.80;99.90
20481;DHT22;10399;50.754;3.366;2022-12-29T05:58:53;11.90;99.90
20481;DHT22;10399;50.754;3.366;2022-12-29T06:01:20;11.80;99.90
20481;DHT22;10399;50.754;3.366;2022-12-29T06:03:47;11.80;99.90
20481;DHT22;10399;50.754;3.366;2022-12-29T06:06:14;11.90;99.90
20481;DHT22;10399;50.754;3.366;2022-12-29T06:08:42;11.80;99.90
20481;DHT22;10399;50.754;3.366;2022-12-29T06:11:09;11.80;99.90
20481;DHT22;10399;50.754;3.366;2022-12-29T06:13:36;11.80;99.90
20481;DHT22;10399;50.754;3.366;2022-12-29T06:16:04;11.80;99.90
20481;DHT22;10399;50.754;3.366;2022-12-29T06:18:31;11.80;99.90
20481;DHT22;10399;50.754;3.366;2022-12-29T06:21:02;11.80;99.90
20481;DHT22;10399;50.754;3.366;2022-12-29T06:23:30;11.90;99.90
20481;DHT22;10399;50.754;3.366;2022-12-29T06:25:57;11.80;99.90
20481;DHT22;10399;50.754;3.366;2022-12-29T06:28:24;11.80;99.90
20481;DHT22;10399;50.754;3.366;2022-12-29T06:30:51;11.80;99.90
20481;DHT22;10399;50.754;3.366;2022-12-29T06:33:18;11.90;99.90
20481;DHT22;10399;50.754;3.366;2022-12-29T06:35:45;11.80;99.90
20481;DHT22;10399;50.754;3.366;2022-12-29T06:38:13;11.80;99.90
20481;DHT22;10399;50.754;3.366;2022-12-29T06:40:41;11.90;99.90
20481;DHT22;10399;50.754;3.366;2022-12-29T06:43:08;11.80;99.90
20481;DHT22;10399;50.754;3.366;2022-12-29T06:45:35;11.80;99.90
20481;DHT22;10399;50.754;3.366;2022-12-29T06:48:04;11.90;99.90
20481;DHT22;10399;50.754;3.366;2022-12-29T06:50:31;11.80;99.90
20481;DHT22;10399;50.754;3.366;2022-12-29T06:52:58;11.80;99.90
20481;DHT22;10399;50.754;3.366;2022-12-29T06:55:25;11.80;99.90
20481;DHT22;10399;50.754;3.366;2022-12-29T06:57:57;11.70;99.90
20481;DHT22;10399;50.754;3.366;2022-12-29T07:00:25;11.70;99.90
20481;DHT22;10399;50.754;3.366;2022-12-29T07:02:54;11.70;99.90
20481;DHT22;10399;50.754;3.366;2022-12-29T07:05:22;11.70;99.90
20481;DHT22;10399;50.754;3.366;2022-12-29T07:07:49;11.80;99.90
20481;DHT22;10399;50.754;3.366;2022-12-29T07:10:16;11.80;99.90
20481;DHT22;10399;50.754;3.366;2022-12-29T07:12:43;11.90;99.90
20481;DHT22;10399;50.754;3.366;2022-12-29T07:15:10;12.00;99.90
20481;DHT22;10399;50.754;3.366;2022-12-29T07:17:37;11.90;99.90
20481;DHT22;10399;50.754;3.366;2022-12-29T07:20:05;11.90;99.90
20481;DHT22;10399;50.754;3.366;2022-12-29T07:22:32;11.80;99.90
20481;DHT22;10399;50.754;3.366;2022-12-29T07:24:59;11.80;99.90
20481;DHT22;10399;50.754;3.366;2022-12-29T07:27:26;11.90;99.90
20481;DHT22;10399;50.754;3.366;2022-12-29T07:29:53;11.80;99.90
20481;DHT22;10399;50.754;3.366;2022-12-29T07:32:20;11.90;99.90
20481;DHT22;10399;50.754;3.366;2022-12-29T07:34:47;11.80;99.90
20481;DHT22;10399;50.754;3.366;2022-12-29T07:37:17;11.80;99.90
20481;DHT22;10399;50.754;3.366;2022-12-29T07:39:46;11.90;99.90
20481;DHT22;10399;50.754;3.366;2022-12-29T07:42:12;11.80;99.90
20481;DHT22;10399;50.754;3.366;2022-12-29T07:44:39;11.90;99.90
20481;DHT22;10399;50.754;3.366;2022-12-29T07:47:06;11.90;99.90
20481;DHT22;10399;50.754;3.366;2022-12-29T07:49:33;11.80;99.90
20481;DHT22;10399;50.754;3.366;2022-12-29T07:52:00;11.80;99.90
20481;DHT22;10399;50.754;3.366;2022-12-29T07:54:27;11.80;99.90
20481;DHT22;10399;50.754;3.366;2022-12-29T07:56:54;11.70;99.90
20481;DHT22;10399;50.754;3.366;2022-12-29T07:59:21;11.70;99.90
20481;DHT22;10399;50.754;3.366;2022-12-29T08:01:48;11.80;99.90
20481;DHT22;10399;50.754;3.366;2022-12-29T08:04:15;11.70;99.90
20481;DHT22;10399;50.754;3.366;2022-12-29T08:06:42;11.70;99.90
20481;DHT22;10399;50.754;3.366;2022-12-29T08:09:09;11.70;99.90
20481;DHT22;10399;50.754;3.366;2022-12-29T08:11:44;11.80;99.90
20481;DHT22;10399;50.754;3.366;2022-12-29T08:14:11;11.80;99.90
20481;DHT22;10399;50.754;3.366;2022-12-29T08:16:38;11.70;99.90
20481;DHT22;10399;50.754;3.366;2022-12-29T08:19:05;11.70;99.90
20481;DHT22;10399;50.754;3.366;2022-12-29T08:21:32;11.60;99.90
20481;DHT22;10399;50.754;3.366;2022-12-29T08:23:59;11.60;99.90
20481;DHT22;10399;50.754;3.366;2022-12-29T08:26:26;11.60;99.90
20481;DHT22;10399;50.754;3.366;2022-12-29T08:28:53;11.50;99.90
20481;DHT22;10399;50.754;3.366;2022-12-29T08:31:21;11.40;99.90
20481;DHT22;10399;50.754;3.366;2022-12-29T08:33:49;11.30;99.90
20481;DHT22;10399;50.754;3.366;2022-12-29T08:36:16;11.40;99.90
20481;DHT22;10399;50.754;3.366;2022-12-29T08:38:43;11.40;99.90
20481;DHT22;10399;50.754;3.366;2022-12-29T08:41:10;11.40;99.90
20481;DHT22;10399;50.754;3.366;2022-12-29T08:43:38;11.30;99.90
20481;DHT22;10399;50.754;3.366;2022-12-29T08:46:05;11.40;99.90
20481;DHT22;10399;50.754;3.366;2022-12-29T08:48:31;11.40;99.90
20481;DHT22;10399;50.754;3.366;2022-12-29T08:50:58;11.40;99.90
20481;DHT22;10399;50.754;3.366;2022-12-29T08:53:25;11.30;99.90
20481;DHT22;10399;50.754;3.366;2022-12-29T08:55:58;11.30;99.90
20481;DHT22;10399;50.754;3.366;2022-12-29T08:58:31;11.30;99.90
20481;DHT22;10399;50.754;3.366;2022-12-29T09:00:59;11.30;99.90
20481;DHT22;10399;50.754;3.366;2022-12-29T09:03:26;11.40;99.90
20481;DHT22;10399;50.754;3.366;2022-12-29T09:06:14;11.40;99.90
20481;DHT22;10399;50.754;3.366;2022-12-29T09:08:42;11.40;99.90
20481;DHT22;10399;50.754;3.366;2022-12-29T09:11:19;11.40;99.90
20481;DHT22;10399;50.754;3.366;2022-12-29T09:13:46;11.50;99.90
20481;DHT22;10399;50.754;3.366;2022-12-29T09:16:14;11.40;99.90
20481;DHT22;10399;50.754;3.366;2022-12-29T09:18:42;11.40;99.90
20481;DHT22;10399;50.754;3.366;2022-12-29T09:21:10;11.30;99.90
20481;DHT22;10399;50.754;3.366;2022-12-29T09:23:38;11.30;99.90
20481;DHT22;10399;50.754;3.366;2022-12-29T09:26:06;11.30;99.90
20481;DHT22;10399;50.754;3.366;2022-12-29T09:28:34;11.30;99.90
20481;DHT22;10399;50.754;3.366;2022-12-29T09:31:01;11.40;99.90
20481;DHT22;10399;50.754;3.366;2022-12-29T09:33:29;11.30;99.90
20481;DHT22;10399;50.754;3.366;2022-12-29T09:35:57;11.50;99.90
20481;DHT22;10399;50.754;3.366;2022-12-29T09:38:26;11.50;99.90
20481;DHT22;10399;50.754;3.366;2022-12-29T09:51:37;11.60;99.90
20481;DHT22;10399;50.754;3.366;2022-12-29T09:56:52;11.80;99.90
20481;DHT22;10399;50.754;3.366;2022-12-29T09:59:22;12.00;99.90
20481;DHT22;10399;50.754;3.366;2022-12-29T10:02:03;12.20;99.90
20481;DHT22;10399;50.754;3.366;2022-12-29T10:04:33;12.40;99.90
20481;DHT22;10399;50.754;3.366;2022-12-29T10:16:18;12.30;99.90
20481;DHT22;10399;50.754;3.366;2022-12-29T10:18:56;12.30;99.90
20481;DHT22;10399;50.754;3.366;2022-12-29T10:21:51;12.20;99.90
20481;DHT22;10399;50.754;3.366;2022-12-29T10:24:22;12.20;99.90
20481;DHT22;10399;50.754;3.366;2022-12-29T10:26:51;12.10;99.90
20481;DHT22;10399;50.754;3.366;2022-12-29T10:29:20;12.10;99.90
20481;DHT22;10399;50.754;3.366;2022-12-29T10:32:00;12.10;99.90
20481;DHT22;10399;50.754;3.366;2022-12-29T10:34:37;12.20;99.90
20481;DHT22;10399;50.754;3.366;2022-12-29T10:37:27;12.30;99.90
20481;DHT22;10399;50.754;3.366;2022-12-29T10:40:02;12.30;99.90
20481;DHT22;10399;50.754;3.366;2022-12-29T10:42:42;12.40;99.90
20481;DHT22;10399;50.754;3.366;2022-12-29T10:45:14;12.30;99.90
20481;DHT22;10399;50.754;3.366;2022-12-29T10:47:59;12.20;99.90
20481;DHT22;10399;50.754;3.366;2022-12-29T10:50:27;12.20;99.90
20481;DHT22;10399;50.754;3.366;2022-12-29T10:52:59;12.20;99.90
20481;DHT22;10399;50.754;3.366;2022-12-29T10:55:32;12.40;99.90
20481;DHT22;10399;50.754;3.366;2022-12-29T10:58:04;12.50;99.90
20481;DHT22;10399;50.754;3.366;2022-12-29T11:00:32;12.40;99.90
20481;DHT22;10399;50.754;3.366;2022-12-29T11:03:34;12.50;99.90
20481;DHT22;10399;50.754;3.366;2022-12-29T11:06:12;12.40;99.90
20481;DHT22;10399;50.754;3.366;2022-12-29T11:08:52;12.60;99.90
20481;DHT22;10399;50.754;3.366;2022-12-29T11:11:25;12.60;99.90
20481;DHT22;10399;50.754;3.366;2022-12-29T11:16:32;12.70;99.90
20481;DHT22;10399;50.754;3.366;2022-12-29T11:19:02;12.70;99.90
20481;DHT22;10399;50.754;3.366;2022-12-29T11:21:36;12.80;99.90
20481;DHT22;10399;50.754;3.366;2022-12-29T11:27:08;12.60;99.90
20481;DHT22;10399;50.754;3.366;2022-12-29T11:29:41;12.60;99.90
20481;DHT22;10399;50.754;3.366;2022-12-29T11:32:17;12.60;99.90
20481;DHT22;10399;50.754;3.366;2022-12-29T11:34:54;12.50;99.90
20481;DHT22;10399;50.754;3.366;2022-12-29T11:37:47;12.50;99.90
20481;DHT22;10399;50.754;3.366;2022-12-29T11:40:40;12.40;99.90
20481;DHT22;10399;50.754;3.366;2022-12-29T11:43:37;12.40;99.90
20481;DHT22;10399;50.754;3.366;2022-12-29T11:46:09;12.40;99.90
20481;DHT22;10399;50.754;3.366;2022-12-29T11:48:43;12.40;99.90
20481;DHT22;10399;50.754;3.366;2022-12-29T11:51:11;12.40;99.90
20481;DHT22;10399;50.754;3.366;2022-12-29T11:54:01;12.40;99.90
20481;DHT22;10399;50.754;3.366;2022-12-29T11:56:41;12.20;99.90
20481;DHT22;10399;50.754;3.366;2022-12-29T12:05:20;11.80;99.90
20481;DHT22;10399;50.754;3.366;2022-12-29T12:10:56;11.80;99.90
20481;DHT22;10399;50.754;3.366;2022-12-29T12:16:27;11.80;99.90
20481;DHT22;10399;50.754;3.366;2022-12-29T12:19:11;12.00;99.90
20481;DHT22;10399;50.754;3.366;2022-12-29T12:21:41;12.10;99.90
20481;DHT22;10399;50.754;3.366;2022-12-29T12:35:15;12.20;99.90
20481;DHT22;10399;50.754;3.366;2022-12-29T12:40:45;12.60;99.90
20481;DHT22;10399;50.754;3.366;2022-12-29T12:53:52;12.50;99.90
20481;DHT22;10399;50.754;3.366;2022-12-29T12:56:43;12.50;99.90
20481;DHT22;10399;50.754;3.366;2022-12-29T12:59:15;12.40;99.90
20481;DHT22;10399;50.754;3.366;2022-12-29T13:02:15;12.40;99.90
20481;DHT22;10399;50.754;3.366;2022-12-29T13:10:12;12.10;99.90
20481;DHT22;10399;50.754;3.366;2022-12-29T13:12:49;12.10;99.90
20481;DHT22;10399;50.754;3.366;2022-12-29T13:18:18;11.10;99.90
20481;DHT22;10399;50.754;3.366;2022-12-29T13:23:23;10.50;99.90
20481;DHT22;10399;50.754;3.366;2022-12-29T13:26:10;10.20;99.90
20481;DHT22;10399;50.754;3.366;2022-12-29T13:37:01;9.90;99.90
20481;DHT22;10399;50.754;3.366;2022-12-29T13:39:38;9.90;99.90
20481;DHT22;10399;50.754;3.366;2022-12-29T13:42:06;9.80;99.90
20481;DHT22;10399;50.754;3.366;2022-12-29T13:44:48;9.80;99.90
20481;DHT22;10399;50.754;3.366;2022-12-29T13:47:42;9.90;99.90
20481;DHT22;10399;50.754;3.366;2022-12-29T13:50:17;9.90;99.90
20481;DHT22;10399;50.754;3.366;2022-12-29T14:04:14;10.30;99.90
20481;DHT22;10399;50.754;3.366;2022-12-29T14:06:41;10.30;99.90
20481;DHT22;10399;50.754;3.366;2022-12-29T14:09:38;10.30;99.90
20481;DHT22;10399;50.754;3.366;2022-12-29T14:17:39;10.10;99.90
20481;DHT22;10399;50.754;3.366;2022-12-29T14:20:18;10.10;99.90
20481;DHT22;10399;50.754;3.366;2022-12-29T14:22:59;10.10;99.90
20481;DHT22;10399;50.754;3.366;2022-12-29T14:28:35;10.10;99.90
20481;DHT22;10399;50.754;3.366;2022-12-29T14:36:34;10.10;99.90
20481;DHT22;10399;50.754;3.366;2022-12-29T14:39:01;10.10;99.90
20481;DHT22;10399;50.754;3.366;2022-12-29T14:41:41;10.10;99.90
20481;DHT22;10399;50.754;3.366;2022-12-29T14:46:55;10.00;99.90
20481;DHT22;10399;50.754;3.366;2022-12-29T14:49:31;9.90;99.90
20481;DHT22;10399;50.754;3.366;2022-12-29T14:52:18;9.70;99.90
20481;DHT22;10399;50.754;3.366;2022-12-29T14:54:51;9.70;99.90
20481;DHT22;10399;50.754;3.366;2022-12-29T14:57:20;9.60;99.90
20481;DHT22;10399;50.754;3.366;2022-12-29T14:59:53;9.70;99.90
20481;DHT22;10399;50.754;3.366;2022-12-29T15:02:24;9.90;99.90
20481;DHT22;10399;50.754;3.366;2022-12-29T15:04:54;9.90;99.90
20481;DHT22;10399;50.754;3.366;2022-12-29T15:07:27;10.00;99.90
20481;DHT22;10399;50.754;3.366;2022-12-29T15:10:00;10.10;99.90
20481;DHT22;10399;50.754;3.366;2022-12-29T15:12:40;10.20;99.90
20481;DHT22;10399;50.754;3.366;2022-12-29T15:17:49;10.20;99.90
20481;DHT22;10399;50.754;3.366;2022-12-29T15:22:50;10.00;99.90
20481;DHT22;10399;50.754;3.366;2022-12-29T15:25:18;10.10;99.90
20481;DHT22;10399;50.754;3.366;2022-12-29T15:28:00;10.20;99.90
20481;DHT22;10399;50.754;3.366;2022-12-29T15:30:27;10.20;99.90
20481;DHT22;10399;50.754;3.366;2022-12-29T15:32:54;10.20;99.90
20481;DHT22;10399;50.754;3.366;2022-12-29T15:37:52;10.10;99.90
20481;DHT22;10399;50.754;3.366;2022-12-29T15:40:29;10.10;99.90
20481;DHT22;10399;50.754;3.366;2022-12-29T15:45:46;10.30;99.90
20481;DHT22;10399;50.754;3.366;2022-12-29T15:48:19;10.30;99.90
20481;DHT22;10399;50.754;3.366;2022-12-29T15:50:48;10.10;99.90
20481;DHT22;10399;50.754;3.366;2022-12-29T15:53:23;10.20;99.90
20481;DHT22;10399;50.754;3.366;2022-12-29T15:55:57;10.30;99.90
20481;DHT22;10399;50.754;3.366;2022-12-29T15:58:30;10.40;99.90
20481;DHT22;10399;50.754;3.366;2022-12-29T16:01:00;10.30;99.90
20481;DHT22;10399;50.754;3.366;2022-12-29T16:03:32;10.30;99.90
20481;DHT22;10399;50.754;3.366;2022-12-29T16:08:59;10.40;99.90
20481;DHT22;10399;50.754;3.366;2022-12-29T16:11:47;10.30;99.90
20481;DHT22;10399;50.754;3.366;2022-12-29T16:15:03;10.40;99.90
20481;DHT22;10399;50.754;3.366;2022-12-29T16:17:30;10.40;99.90
20481;DHT22;10399;50.754;3.366;2022-12-29T16:20:18;10.40;99.90
20481;DHT22;10399;50.754;3.366;2022-12-29T16:22:49;10.40;99.90
20481;DHT22;10399;50.754;3.366;2022-12-29T16:25:27;10.50;99.90
20481;DHT22;10399;50.754;3.366;2022-12-29T16:27:55;10.40;99.90
20481;DHT22;10399;50.754;3.366;2022-12-29T16:33:01;10.30;99.90
20481;DHT22;10399;50.754;3.366;2022-12-29T16:38:13;10.40;99.90
20481;DHT22;10399;50.754;3.366;2022-12-29T16:41:12;10.20;99.90
20481;DHT22;10399;50.754;3.366;2022-12-29T16:44:16;10.20;99.90
20481;DHT22;10399;50.754;3.366;2022-12-29T16:49:38;10.10;99.90
20481;DHT22;10399;50.754;3.366;2022-12-29T16:52:19;9.90;99.90
20481;DHT22;10399;50.754;3.366;2022-12-29T16:54:54;10.00;99.90
20481;DHT22;10399;50.754;3.366;2022-12-29T16:57:25;10.10;99.90
20481;DHT22;10399;50.754;3.366;2022-12-29T16:59:57;10.10;99.90
20481;DHT22;10399;50.754;3.366;2022-12-29T17:02:29;10.00;99.90
20481;DHT22;10399;50.754;3.366;2022-12-29T17:04:57;10.10;99.90
20481;DHT22;10399;50.754;3.366;2022-12-29T17:07:26;10.00;99.90
20481;DHT22;10399;50.754;3.366;2022-12-29T17:09:53;10.00;99.90
20481;DHT22;10399;50.754;3.366;2022-12-29T17:12:23;9.90;99.90
20481;DHT22;10399;50.754;3.366;2022-12-29T17:15:06;9.90;99.90
20481;DHT22;10399;50.754;3.366;2022-12-29T17:20:19;9.90;99.90
20481;DHT22;10399;50.754;3.366;2022-12-29T17:22:47;9.80;99.90
20481;DHT22;10399;50.754;3.366;2022-12-29T17:25:17;10.10;99.90
20481;DHT22;10399;50.754;3.366;2022-12-29T17:27:47;10.00;99.90
20481;DHT22;10399;50.754;3.366;2022-12-29T17:30:20;10.00;99.90
20481;DHT22;10399;50.754;3.366;2022-12-29T17:33:06;10.00;99.90
20481;DHT22;10399;50.754;3.366;2022-12-29T17:35:36;10.10;99.90
20481;DHT22;10399;50.754;3.366;2022-12-29T17:38:31;10.20;99.90
20481;DHT22;10399;50.754;3.366;2022-12-29T17:40:58;10.10;99.90
20481;DHT22;10399;50.754;3.366;2022-12-29T17:43:26;10.10;99.90
20481;DHT22;10399;50.754;3.366;2022-12-29T17:46:04;10.20;99.90
20481;DHT22;10399;50.754;3.366;2022-12-29T17:48:31;10.20;99.90
20481;DHT22;10399;50.754;3.366;2022-12-29T17:50:58;10.20;99.90
20481;DHT22;10399;50.754;3.366;2022-12-29T17:53:27;10.20;99.90
20481;DHT22;10399;50.754;3.366;2022-12-29T17:55:55;10.20;99.90
20481;DHT22;10399;50.754;3.366;2022-12-29T17:58:26;10.30;99.90
20481;DHT22;10399;50.754;3.366;2022-12-29T18:00:56;10.20;99.90
20481;DHT22;10399;50.754;3.366;2022-12-29T18:03:27;10.20;99.90
20481;DHT22;10399;50.754;3.366;2022-12-29T18:05:55;10.20;99.90
20481;DHT22;10399;50.754;3.366;2022-12-29T18:08:22;10.30;99.90
20481;DHT22;10399;50.754;3.366;2022-12-29T18:10:53;10.40;99.90
20481;DHT22;10399;50.754;3.366;2022-12-29T18:13:24;10.40;99.90
20481;DHT22;10399;50.754;3.366;2022-12-29T18:16:01;10.40;99.90
20481;DHT22;10399;50.754;3.366;2022-12-29T18:18:28;10.40;99.90
20481;DHT22;10399;50.754;3.366;2022-12-29T18:20:58;10.30;99.90
20481;DHT22;10399;50.754;3.366;2022-12-29T18:23:27;10.30;99.90
20481;DHT22;10399;50.754;3.366;2022-12-29T18:26:03;10.20;99.90
20481;DHT22;10399;50.754;3.366;2022-12-29T18:28:31;10.20;99.90
20481;DHT22;10399;50.754;3.366;2022-12-29T18:31:00;10.10;99.90
20481;DHT22;10399;50.754;3.366;2022-12-29T18:33:27;10.10;99.90
20481;DHT22;10399;50.754;3.366;2022-12-29T18:35:56;10.10;99.90
20481;DHT22;10399;50.754;3.366;2022-12-29T18:38:25;9.90;99.90
20481;DHT22;10399;50.754;3.366;2022-12-29T18:40:53;9.90;99.90
20481;DHT22;10399;50.754;3.366;2022-12-29T18:43:20;9.90;99.90
20481;DHT22;10399;50.754;3.366;2022-12-29T18:45:48;9.80;99.90
20481;DHT22;10399;50.754;3.366;2022-12-29T18:48:16;9.80;99.90
20481;DHT22;10399;50.754;3.366;2022-12-29T18:50:44;9.70;99.90
20481;DHT22;10399;50.754;3.366;2022-12-29T18:53:15;9.80;99.90
20481;DHT22;10399;50.754;3.366;2022-12-29T18:55:42;9.70;99.90